Mc Condy, Mississippi
Current Conditions -  °F | °C
As of 10:35 AM on Monday 24 Nov 2014 (Local Time) from KM40 Reporting Station
Overcast Overcast  
Wind Chill: 61°   Ceiling: 3000
Heat Index: 61°   Visibility: 9mi
Dew Point: 45°   Wind: 10mph
Humidity: 55%   Direction: 290°WNW
Pressure: 29.91"   Gusts: NA
Location:  33.9068°N, 88.9554°W
Report Text: KM40 241635Z AUTO 29009KT 9SM OVC030 16/07 A2991 RMK AO2
Loading
Personal Weather Stations






























Interactive Weather Map New forecast layout! Learn more

10-Day Weather Forecast

Advertisements
Track Severe Weather on mobile